sensor_id;sensor_type;location;lat;lon;timestamp;pressure;altitude;pressure_sealevel;temperature;humidity
11676;BME280;5894;42.768;23.404;2022-09-27T00:01:16;94725.28;;;16.82;100.00
11676;BME280;5894;42.768;23.404;2022-09-27T00:03:43;94728.72;;;16.83;100.00
11676;BME280;5894;42.768;23.404;2022-09-27T00:06:12;94723.38;;;16.83;100.00
11676;BME280;5894;42.768;23.404;2022-09-27T00:08:39;94721.06;;;16.78;100.00
11676;BME280;5894;42.768;23.404;2022-09-27T00:11:09;94731.72;;;16.78;100.00
11676;BME280;5894;42.768;23.404;2022-09-27T00:13:41;94734.00;;;16.79;100.00
11676;BME280;5894;42.768;23.404;2022-09-27T00:16:08;94720.56;;;16.69;100.00
11676;BME280;5894;42.768;23.404;2022-09-27T00:18:35;94740.81;;;16.77;100.00
11676;BME280;5894;42.768;23.404;2022-09-27T00:21:08;94750.69;;;16.76;100.00
11676;BME280;5894;42.768;23.404;2022-09-27T00:23:35;94739.69;;;16.78;100.00
11676;BME280;5894;42.768;23.404;2022-09-27T00:26:02;94749.56;;;16.77;100.00
11676;BME280;5894;42.768;23.404;2022-09-27T00:28:31;94751.13;;;16.78;100.00
11676;BME280;5894;42.768;23.404;2022-09-27T00:34:05;94740.41;;;16.75;100.00
11676;BME280;5894;42.768;23.404;2022-09-27T00:36:33;94743.44;;;16.73;100.00
11676;BME280;5894;42.768;23.404;2022-09-27T00:39:00;94748.38;;;16.71;100.00
11676;BME280;5894;42.768;23.404;2022-09-27T00:41:29;94750.63;;;16.73;100.00
11676;BME280;5894;42.768;23.404;2022-09-27T00:43:58;94744.09;;;16.67;100.00
11676;BME280;5894;42.768;23.404;2022-09-27T00:46:29;94741.13;;;16.72;100.00
11676;BME280;5894;42.768;23.404;2022-09-27T00:49:03;94721.91;;;16.59;100.00
11676;BME280;5894;42.768;23.404;2022-09-27T00:51:33;94727.09;;;16.75;100.00
11676;BME280;5894;42.768;23.404;2022-09-27T00:54:05;94723.22;;;16.69;100.00
11676;BME280;5894;42.768;23.404;2022-09-27T00:56:33;94718.19;;;16.64;100.00
11676;BME280;5894;42.768;23.404;2022-09-27T00:59:06;94713.47;;;16.53;100.00
11676;BME280;5894;42.768;23.404;2022-09-27T01:01:35;94711.16;;;16.52;100.00
11676;BME280;5894;42.768;23.404;2022-09-27T01:04:06;94697.13;;;16.55;100.00
11676;BME280;5894;42.768;23.404;2022-09-27T01:06:33;94656.84;;;16.27;100.00
11676;BME280;5894;42.768;23.404;2022-09-27T01:09:02;94697.34;;;16.43;100.00
11676;BME280;5894;42.768;23.404;2022-09-27T01:11:39;94691.25;;;16.42;100.00
11676;BME280;5894;42.768;23.404;2022-09-27T01:14:26;94690.84;;;16.40;100.00
11676;BME280;5894;42.768;23.404;2022-09-27T01:17:05;94689.78;;;16.45;100.00
11676;BME280;5894;42.768;23.404;2022-09-27T01:22:41;94695.88;;;16.45;100.00
11676;BME280;5894;42.768;23.404;2022-09-27T01:25:32;94681.38;;;16.43;100.00
11676;BME280;5894;42.768;23.404;2022-09-27T01:28:19;94687.06;;;16.41;100.00
11676;BME280;5894;42.768;23.404;2022-09-27T01:30:53;94694.31;;;16.44;100.00
11676;BME280;5894;42.768;23.404;2022-09-27T01:33:28;94708.41;;;16.45;100.00
11676;BME280;5894;42.768;23.404;2022-09-27T01:36:06;94695.16;;;16.48;100.00
11676;BME280;5894;42.768;23.404;2022-09-27T01:38:41;94695.03;;;16.41;100.00
11676;BME280;5894;42.768;23.404;2022-09-27T01:41:22;94682.25;;;16.50;100.00
11676;BME280;5894;42.768;23.404;2022-09-27T01:44:14;94689.06;;;16.48;100.00
11676;BME280;5894;42.768;23.404;2022-09-27T01:46:53;94678.00;;;16.46;100.00
11676;BME280;5894;42.768;23.404;2022-09-27T01:49:34;94676.88;;;16.47;100.00
11676;BME280;5894;42.768;23.404;2022-09-27T01:52:07;94660.28;;;16.31;100.00
11676;BME280;5894;42.768;23.404;2022-09-27T01:54:37;94674.31;;;16.54;100.00
11676;BME280;5894;42.768;23.404;2022-09-27T01:57:34;94680.31;;;16.47;100.00
11676;BME280;5894;42.768;23.404;2022-09-27T02:00:07;94668.59;;;16.26;100.00
11676;BME280;5894;42.768;23.404;2022-09-27T02:02:45;94684.81;;;16.43;100.00
11676;BME280;5894;42.768;23.404;2022-09-27T02:05:31;94689.34;;;16.39;100.00
11676;BME280;5894;42.768;23.404;2022-09-27T02:08:16;94682.22;;;16.47;100.00
11676;BME280;5894;42.768;23.404;2022-09-27T02:10:46;94686.41;;;16.48;100.00
11676;BME280;5894;42.768;23.404;2022-09-27T02:13:20;94676.56;;;16.52;100.00
11676;BME280;5894;42.768;23.404;2022-09-27T02:15:59;94668.56;;;16.52;100.00
11676;BME280;5894;42.768;23.404;2022-09-27T02:18:49;94669.69;;;16.51;100.00
11676;BME280;5894;42.768;23.404;2022-09-27T02:21:20;94619.53;;;16.23;100.00
11676;BME280;5894;42.768;23.404;2022-09-27T02:23:53;94655.09;;;16.38;100.00
11676;BME280;5894;42.768;23.404;2022-09-27T02:26:29;94628.75;;;16.29;100.00
11676;BME280;5894;42.768;23.404;2022-09-27T02:28:59;94635.03;;;16.44;100.00
11676;BME280;5894;42.768;23.404;2022-09-27T02:31:35;94576.91;;;16.20;100.00
11676;BME280;5894;42.768;23.404;2022-09-27T02:34:06;94605.44;;;16.49;100.00
11676;BME280;5894;42.768;23.404;2022-09-27T02:36:34;94600.84;;;16.46;100.00
11676;BME280;5894;42.768;23.404;2022-09-27T02:39:02;94613.00;;;16.47;100.00
11676;BME280;5894;42.768;23.404;2022-09-27T02:41:30;94622.47;;;16.44;100.00
11676;BME280;5894;42.768;23.404;2022-09-27T02:43:59;94611.00;;;16.37;100.00
11676;BME280;5894;42.768;23.404;2022-09-27T02:46:43;94609.88;;;16.41;100.00
11676;BME280;5894;42.768;23.404;2022-09-27T02:49:27;94610.31;;;16.43;100.00
11676;BME280;5894;42.768;23.404;2022-09-27T02:52:14;94614.84;;;16.43;100.00
11676;BME280;5894;42.768;23.404;2022-09-27T02:54:52;94613.78;;;16.47;100.00
11676;BME280;5894;42.768;23.404;2022-09-27T02:57:56;94588.16;;;16.36;100.00
11676;BME280;5894;42.768;23.404;2022-09-27T03:01:04;94615.31;;;16.48;100.00
11676;BME280;5894;42.768;23.404;2022-09-27T03:03:49;94610.34;;;16.47;100.00
11676;BME280;5894;42.768;23.404;2022-09-27T03:06:21;94616.44;;;16.47;100.00
11676;BME280;5894;42.768;23.404;2022-09-27T03:08:49;94606.25;;;16.53;100.00
11676;BME280;5894;42.768;23.404;2022-09-27T03:11:17;94595.22;;;16.55;100.00
11676;BME280;5894;42.768;23.404;2022-09-27T03:13:44;94579.38;;;16.62;100.00
11676;BME280;5894;42.768;23.404;2022-09-27T03:16:11;94561.50;;;16.62;100.00
11676;BME280;5894;42.768;23.404;2022-09-27T03:18:53;94556.50;;;16.57;100.00
11676;BME280;5894;42.768;23.404;2022-09-27T03:21:41;94551.75;;;16.43;100.00
11676;BME280;5894;42.768;23.404;2022-09-27T03:24:08;94549.88;;;16.44;100.00
11676;BME280;5894;42.768;23.404;2022-09-27T03:26:35;94550.63;;;16.44;100.00
11676;BME280;5894;42.768;23.404;2022-09-27T03:29:02;94540.00;;;16.44;100.00
11676;BME280;5894;42.768;23.404;2022-09-27T03:31:29;94540.75;;;16.45;100.00
11676;BME280;5894;42.768;23.404;2022-09-27T03:34:28;94541.16;;;16.47;100.00
11676;BME280;5894;42.768;23.404;2022-09-27T03:36:56;94539.22;;;16.44;100.00
11676;BME280;5894;42.768;23.404;2022-09-27T03:39:23;94529.34;;;16.44;100.00
11676;BME280;5894;42.768;23.404;2022-09-27T03:41:50;94522.94;;;16.49;100.00
11676;BME280;5894;42.768;23.404;2022-09-27T03:44:18;94527.16;;;16.50;100.00
11676;BME280;5894;42.768;23.404;2022-09-27T03:46:45;94518.00;;;16.51;100.00
11676;BME280;5894;42.768;23.404;2022-09-27T03:49:12;94511.53;;;16.48;100.00
11676;BME280;5894;42.768;23.404;2022-09-27T03:51:39;94532.47;;;16.50;100.00
11676;BME280;5894;42.768;23.404;2022-09-27T03:54:08;94534.38;;;16.49;100.00
11676;BME280;5894;42.768;23.404;2022-09-27T03:56:35;94540.03;;;16.48;100.00
11676;BME280;5894;42.768;23.404;2022-09-27T03:59:02;94554.88;;;16.49;100.00
11676;BME280;5894;42.768;23.404;2022-09-27T04:01:39;94559.03;;;16.46;100.00
11676;BME280;5894;42.768;23.404;2022-09-27T04:04:26;94548.34;;;16.43;100.00
11676;BME280;5894;42.768;23.404;2022-09-27T04:06:56;94549.44;;;16.38;100.00
11676;BME280;5894;42.768;23.404;2022-09-27T04:09:25;94552.47;;;16.40;100.00
11676;BME280;5894;42.768;23.404;2022-09-27T04:11:56;94557.00;;;16.36;100.00
11676;BME280;5894;42.768;23.404;2022-09-27T04:14:23;94550.78;;;16.25;100.00
11676;BME280;5894;42.768;23.404;2022-09-27T04:17:15;94561.47;;;16.29;100.00
11676;BME280;5894;42.768;23.404;2022-09-27T04:20:01;94550.09;;;16.32;100.00
11676;BME280;5894;42.768;23.404;2022-09-27T04:22:30;94556.25;;;16.36;100.00
11676;BME280;5894;42.768;23.404;2022-09-27T04:24:59;94552.81;;;16.35;100.00
11676;BME280;5894;42.768;23.404;2022-09-27T04:27:35;94534.91;;;16.32;100.00
11676;BME280;5894;42.768;23.404;2022-09-27T04:30:03;94542.56;;;16.37;100.00
11676;BME280;5894;42.768;23.404;2022-09-27T04:32:51;94548.94;;;16.29;100.00
11676;BME280;5894;42.768;23.404;2022-09-27T04:35:38;94558.13;;;16.35;100.00
11676;BME280;5894;42.768;23.404;2022-09-27T04:38:22;94548.25;;;16.36;100.00
11676;BME280;5894;42.768;23.404;2022-09-27T04:40:52;94559.66;;;16.36;100.00
11676;BME280;5894;42.768;23.404;2022-09-27T04:43:20;94547.13;;;16.37;100.00
11676;BME280;5894;42.768;23.404;2022-09-27T04:45:46;94510.75;;;16.14;100.00
11676;BME280;5894;42.768;23.404;2022-09-27T04:48:13;94542.59;;;16.41;100.00
11676;BME280;5894;42.768;23.404;2022-09-27T04:50:40;94552.44;;;16.37;100.00
11676;BME280;5894;42.768;23.404;2022-09-27T04:53:11;94552.47;;;16.40;100.00
11676;BME280;5894;42.768;23.404;2022-09-27T04:55:39;94548.69;;;16.41;100.00
11676;BME280;5894;42.768;23.404;2022-09-27T04:58:13;94527.16;;;16.20;100.00
11676;BME280;5894;42.768;23.404;2022-09-27T05:00:41;94564.63;;;16.38;100.00
11676;BME280;5894;42.768;23.404;2022-09-27T05:03:34;94504.88;;;16.02;100.00
11676;BME280;5894;42.768;23.404;2022-09-27T05:06:08;94562.03;;;16.45;100.00
11676;BME280;5894;42.768;23.404;2022-09-27T05:08:35;94555.25;;;16.47;100.00
11676;BME280;5894;42.768;23.404;2022-09-27T05:11:32;94562.41;;;16.43;100.00
11676;BME280;5894;42.768;23.404;2022-09-27T05:14:22;94562.00;;;16.41;100.00
11676;BME280;5894;42.768;23.404;2022-09-27T05:17:15;94561.28;;;16.44;100.00
11676;BME280;5894;42.768;23.404;2022-09-27T05:20:12;94554.06;;;16.45;100.00
11676;BME280;5894;42.768;23.404;2022-09-27T05:23:02;94544.25;;;16.49;100.00
11676;BME280;5894;42.768;23.404;2022-09-27T05:25:31;94519.00;;;16.36;100.00
11676;BME280;5894;42.768;23.404;2022-09-27T05:27:58;94536.97;;;16.46;100.00
11676;BME280;5894;42.768;23.404;2022-09-27T05:30:27;94523.91;;;16.34;100.00
11676;BME280;5894;42.768;23.404;2022-09-27T05:33:04;94525.97;;;16.47;100.00
11676;BME280;5894;42.768;23.404;2022-09-27T05:35:32;94525.59;;;16.49;100.00
11676;BME280;5894;42.768;23.404;2022-09-27T05:38:00;94517.66;;;16.52;100.00
11676;BME280;5894;42.768;23.404;2022-09-27T05:40:30;94519.53;;;16.52;100.00
11676;BME280;5894;42.768;23.404;2022-09-27T05:42:57;94520.66;;;16.51;100.00
11676;BME280;5894;42.768;23.404;2022-09-27T05:45:24;94529.03;;;16.49;100.00
11676;BME280;5894;42.768;23.404;2022-09-27T05:47:57;94546.13;;;16.48;100.00
11676;BME280;5894;42.768;23.404;2022-09-27T05:50:25;94551.81;;;16.47;100.00
11676;BME280;5894;42.768;23.404;2022-09-27T05:52:53;94548.34;;;16.43;100.00
11676;BME280;5894;42.768;23.404;2022-09-27T05:55:20;94544.19;;;16.45;100.00
11676;BME280;5894;42.768;23.404;2022-09-27T05:57:55;94546.50;;;16.47;100.00
11676;BME280;5894;42.768;23.404;2022-09-27T06:00:26;94553.34;;;16.48;100.00
11676;BME280;5894;42.768;23.404;2022-09-27T06:02:57;94561.34;;;16.51;100.00
11676;BME280;5894;42.768;23.404;2022-09-27T06:05:44;94560.91;;;16.46;100.00
11676;BME280;5894;42.768;23.404;2022-09-27T06:08:32;94559.03;;;16.46;100.00
11676;BME280;5894;42.768;23.404;2022-09-27T06:11:00;94552.13;;;16.42;100.00
11676;BME280;5894;42.768;23.404;2022-09-27T06:13:30;94556.66;;;16.38;100.00
11676;BME280;5894;42.768;23.404;2022-09-27T06:15:58;94544.53;;;16.44;100.00
11676;BME280;5894;42.768;23.404;2022-09-27T06:18:26;94546.09;;;16.45;100.00
11676;BME280;5894;42.768;23.404;2022-09-27T06:20:53;94556.78;;;16.48;100.00
11676;BME280;5894;42.768;23.404;2022-09-27T06:23:22;94570.50;;;16.54;100.00
11676;BME280;5894;42.768;23.404;2022-09-27T06:25:50;94568.63;;;16.55;100.00
11676;BME280;5894;42.768;23.404;2022-09-27T06:28:24;94558.34;;;16.53;100.00
11676;BME280;5894;42.768;23.404;2022-09-27T06:30:54;94533.66;;;16.56;100.00
11676;BME280;5894;42.768;23.404;2022-09-27T06:33:43;94524.56;;;16.57;100.00
11676;BME280;5894;42.768;23.404;2022-09-27T06:36:10;94534.47;;;16.60;100.00
11676;BME280;5894;42.768;23.404;2022-09-27T06:38:39;94529.25;;;16.67;100.00
11676;BME280;5894;42.768;23.404;2022-09-27T06:41:21;94533.84;;;16.70;100.00
11676;BME280;5894;42.768;23.404;2022-09-27T06:44:06;94538.38;;;16.66;100.00
11676;BME280;5894;42.768;23.404;2022-09-27T06:46:52;94536.88;;;16.69;100.00
11676;BME280;5894;42.768;23.404;2022-09-27T06:49:27;94532.28;;;16.66;100.00
11676;BME280;5894;42.768;23.404;2022-09-27T06:51:55;94529.97;;;16.64;100.00
11676;BME280;5894;42.768;23.404;2022-09-27T06:54:22;94538.00;;;16.68;100.00
11676;BME280;5894;42.768;23.404;2022-09-27T06:56:52;94538.72;;;16.65;100.00
11676;BME280;5894;42.768;23.404;2022-09-27T06:59:19;94531.88;;;16.64;100.00
11676;BME280;5894;42.768;23.404;2022-09-27T07:02:03;94520.03;;;16.61;100.00
11676;BME280;5894;42.768;23.404;2022-09-27T07:04:51;94520.91;;;16.69;100.00
11676;BME280;5894;42.768;23.404;2022-09-27T07:07:35;94493.69;;;16.52;100.00
11676;BME280;5894;42.768;23.404;2022-09-27T07:10:03;94500.06;;;16.44;100.00
11676;BME280;5894;42.768;23.404;2022-09-27T07:12:30;94544.13;;;16.72;100.00
11676;BME280;5894;42.768;23.404;2022-09-27T07:14:58;94550.19;;;16.69;100.00
11676;BME280;5894;42.768;23.404;2022-09-27T07:17:25;94548.31;;;16.73;100.00
11676;BME280;5894;42.768;23.404;2022-09-27T07:19:54;94534.06;;;16.58;100.00
11676;BME280;5894;42.768;23.404;2022-09-27T07:22:21;94547.19;;;16.74;100.00
11676;BME280;5894;42.768;23.404;2022-09-27T07:24:54;94560.59;;;16.81;100.00
11676;BME280;5894;42.768;23.404;2022-09-27T07:27:23;94574.28;;;16.83;100.00
11676;BME280;5894;42.768;23.404;2022-09-27T07:29:51;94578.13;;;16.85;100.00
11676;BME280;5894;42.768;23.404;2022-09-27T07:32:19;94577.81;;;16.91;100.00
11676;BME280;5894;42.768;23.404;2022-09-27T07:34:47;94572.50;;;16.94;100.00
11676;BME280;5894;42.768;23.404;2022-09-27T07:37:16;94560.72;;;16.92;100.00
11676;BME280;5894;42.768;23.404;2022-09-27T07:39:45;94563.03;;;16.97;100.00
11676;BME280;5894;42.768;23.404;2022-09-27T07:42:12;94552.06;;;17.02;100.00
11676;BME280;5894;42.768;23.404;2022-09-27T07:44:42;94538.75;;;17.05;100.00
11676;BME280;5894;42.768;23.404;2022-09-27T07:47:37;94539.13;;;17.04;100.00
11676;BME280;5894;42.768;23.404;2022-09-27T07:50:11;94532.25;;;17.03;100.00
11676;BME280;5894;42.768;23.404;2022-09-27T07:53:00;94541.50;;;17.12;100.00
11676;BME280;5894;42.768;23.404;2022-09-27T07:55:50;94542.63;;;17.15;100.00
11676;BME280;5894;42.768;23.404;2022-09-27T07:58:21;94543.00;;;17.10;100.00
11676;BME280;5894;42.768;23.404;2022-09-27T08:00:50;94563.91;;;17.08;100.00
11676;BME280;5894;42.768;23.404;2022-09-27T08:03:19;94558.63;;;17.11;100.00
11676;BME280;5894;42.768;23.404;2022-09-27T08:05:47;94550.97;;;17.10;100.00
11676;BME280;5894;42.768;23.404;2022-09-27T08:08:16;94539.06;;;16.97;100.00
11676;BME280;5894;42.768;23.404;2022-09-27T08:10:44;94547.19;;;17.14;100.00
11676;BME280;5894;42.768;23.404;2022-09-27T08:13:14;94537.22;;;17.04;100.00
11676;BME280;5894;42.768;23.404;2022-09-27T08:15:45;94560.56;;;17.18;100.00
11676;BME280;5894;42.768;23.404;2022-09-27T08:18:13;94551.81;;;17.17;100.00
11676;BME280;5894;42.768;23.404;2022-09-27T08:20:58;94560.53;;;17.14;100.00
11676;BME280;5894;42.768;23.404;2022-09-27T08:23:45;94560.94;;;17.16;100.00
11676;BME280;5894;42.768;23.404;2022-09-27T08:26:19;94540.69;;;17.08;100.00
11676;BME280;5894;42.768;23.404;2022-09-27T08:28:56;94531.47;;;16.99;100.00
11676;BME280;5894;42.768;23.404;2022-09-27T08:31:26;94549.81;;;17.07;100.00
11676;BME280;5894;42.768;23.404;2022-09-27T08:33:55;94525.75;;;16.97;100.00
11676;BME280;5894;42.768;23.404;2022-09-27T08:36:22;94532.00;;;17.15;100.00
11676;BME280;5894;42.768;23.404;2022-09-27T08:38:51;94529.00;;;17.20;100.00
11676;BME280;5894;42.768;23.404;2022-09-27T08:41:27;94516.44;;;17.20;100.00
11676;BME280;5894;42.768;23.404;2022-09-27T08:44:06;94499.66;;;17.16;100.00
11676;BME280;5894;42.768;23.404;2022-09-27T08:46:48;94503.13;;;17.20;100.00
11676;BME280;5894;42.768;23.404;2022-09-27T08:49:25;94500.16;;;17.29;100.00
11676;BME280;5894;42.768;23.404;2022-09-27T08:51:56;94496.00;;;17.35;100.00
11676;BME280;5894;42.768;23.404;2022-09-27T08:54:27;94487.22;;;17.35;100.00
11676;BME280;5894;42.768;23.404;2022-09-27T08:56:59;94489.91;;;17.35;100.00
11676;BME280;5894;42.768;23.404;2022-09-27T08:59:33;94489.94;;;17.38;100.00
11676;BME280;5894;42.768;23.404;2022-09-27T09:02:01;94499.84;;;17.41;100.00
11676;BME280;5894;42.768;23.404;2022-09-27T09:04:35;94501.81;;;17.48;100.00
11676;BME280;5894;42.768;23.404;2022-09-27T09:07:08;94502.59;;;17.52;100.00
11676;BME280;5894;42.768;23.404;2022-09-27T09:09:47;94525.13;;;17.61;100.00
11676;BME280;5894;42.768;23.404;2022-09-27T09:12:34;94513.75;;;17.65;100.00
11676;BME280;5894;42.768;23.404;2022-09-27T09:15:24;94518.38;;;17.71;100.00
11676;BME280;5894;42.768;23.404;2022-09-27T09:18:19;94521.06;;;17.78;100.00
11676;BME280;5894;42.768;23.404;2022-09-27T09:21:20;94519.94;;;17.79;100.00
11676;BME280;5894;42.768;23.404;2022-09-27T09:24:08;94508.94;;;17.84;100.00
11676;BME280;5894;42.768;23.404;2022-09-27T09:26:46;94509.69;;;17.88;100.00
11676;BME280;5894;42.768;23.404;2022-09-27T09:29:29;94510.91;;;17.94;100.00
11676;BME280;5894;42.768;23.404;2022-09-27T09:32:09;94515.09;;;17.99;100.00
11676;BME280;5894;42.768;23.404;2022-09-27T09:34:46;94496.84;;;18.05;100.00
11676;BME280;5894;42.768;23.404;2022-09-27T09:37:17;94493.03;;;18.09;100.00
11676;BME280;5894;42.768;23.404;2022-09-27T09:39:51;94501.06;;;18.13;100.00
11676;BME280;5894;42.768;23.404;2022-09-27T09:42:24;94478.16;;;18.01;100.00
11676;BME280;5894;42.768;23.404;2022-09-27T09:44:57;94488.53;;;18.17;100.00
11676;BME280;5894;42.768;23.404;2022-09-27T09:47:29;94495.41;;;18.25;100.00
11676;BME280;5894;42.768;23.404;2022-09-27T09:50:03;94486.25;;;18.29;100.00
11676;BME280;5894;42.768;23.404;2022-09-27T09:52:39;94498.13;;;18.36;100.00
11676;BME280;5894;42.768;23.404;2022-09-27T09:55:16;94491.25;;;18.42;100.00
11676;BME280;5894;42.768;23.404;2022-09-27T09:57:53;94489.72;;;18.41;100.00
11676;BME280;5894;42.768;23.404;2022-09-27T10:00:26;94490.13;;;18.50;100.00
11676;BME280;5894;42.768;23.404;2022-09-27T10:02:54;94493.59;;;18.54;100.00
11676;BME280;5894;42.768;23.404;2022-09-27T10:05:25;94485.59;;;18.54;100.00
11676;BME280;5894;42.768;23.404;2022-09-27T10:08:02;94488.31;;;18.57;100.00
11676;BME280;5894;42.768;23.404;2022-09-27T10:10:31;94501.25;;;18.59;100.00
11676;BME280;5894;42.768;23.404;2022-09-27T10:13:33;94492.47;;;18.58;100.00
11676;BME280;5894;42.768;23.404;2022-09-27T10:16:05;94494.78;;;18.63;100.00
11676;BME280;5894;42.768;23.404;2022-09-27T10:18:34;94476.09;;;18.63;100.00
11676;BME280;5894;42.768;23.404;2022-09-27T10:21:06;94460.78;;;18.53;100.00
11676;BME280;5894;42.768;23.404;2022-09-27T10:24:06;94475.38;;;18.77;100.00
11676;BME280;5894;42.768;23.404;2022-09-27T10:26:58;94466.97;;;18.82;100.00
11676;BME280;5894;42.768;23.404;2022-09-27T10:29:31;94445.97;;;18.74;100.00
11676;BME280;5894;42.768;23.404;2022-09-27T10:31:59;94463.16;;;19.01;100.00
11676;BME280;5894;42.768;23.404;2022-09-27T10:34:37;94455.94;;;19.05;100.00
11676;BME280;5894;42.768;23.404;2022-09-27T10:37:15;94461.28;;;19.19;100.00
11676;BME280;5894;42.768;23.404;2022-09-27T10:39:56;94456.69;;;19.27;100.00
11676;BME280;5894;42.768;23.404;2022-09-27T10:42:33;94455.53;;;19.35;100.00
11676;BME280;5894;42.768;23.404;2022-09-27T10:45:23;94456.69;;;19.41;100.00
11676;BME280;5894;42.768;23.404;2022-09-27T10:48:18;94415.06;;;19.26;100.00
11676;BME280;5894;42.768;23.404;2022-09-27T10:50:56;94460.13;;;19.56;100.00
11676;BME280;5894;42.768;23.404;2022-09-27T10:53:33;94444.81;;;19.63;100.00
11676;BME280;5894;42.768;23.404;2022-09-27T10:56:09;94435.66;;;19.71;100.00
11676;BME280;5894;42.768;23.404;2022-09-27T10:58:45;94434.44;;;19.83;100.00
11676;BME280;5894;42.768;23.404;2022-09-27T11:01:15;94437.13;;;19.90;100.00
11676;BME280;5894;42.768;23.404;2022-09-27T11:03:59;94436.31;;;19.97;100.00
11676;BME280;5894;42.768;23.404;2022-09-27T11:06:28;94432.13;;;20.03;100.00
11676;BME280;5894;42.768;23.404;2022-09-27T11:09:14;94423.28;;;20.09;100.00
11676;BME280;5894;42.768;23.404;2022-09-27T11:11:43;94422.47;;;20.16;100.00
11676;BME280;5894;42.768;23.404;2022-09-27T11:14:19;94415.25;;;20.06;100.00
11676;BME280;5894;42.768;23.404;2022-09-27T11:17:06;94417.88;;;20.24;100.00
11676;BME280;5894;42.768;23.404;2022-09-27T11:19:51;94416.31;;;20.30;100.00
11676;BME280;5894;42.768;23.404;2022-09-27T11:22:33;94409.78;;;20.34;100.00
11676;BME280;5894;42.768;23.404;2022-09-27T11:25:14;94414.75;;;20.36;100.00
11676;BME280;5894;42.768;23.404;2022-09-27T11:27:56;94413.97;;;20.39;100.00
11676;BME280;5894;42.768;23.404;2022-09-27T11:30:32;94405.19;;;20.42;100.00
11676;BME280;5894;42.768;23.404;2022-09-27T11:33:39;94408.63;;;20.42;100.00
11676;BME280;5894;42.768;23.404;2022-09-27T11:36:12;94399.81;;;20.42;100.00
11676;BME280;5894;42.768;23.404;2022-09-27T11:38:54;94404.75;;;20.47;100.00
11676;BME280;5894;42.768;23.404;2022-09-27T11:41:39;94401.69;;;20.48;100.00
11676;BME280;5894;42.768;23.404;2022-09-27T11:47:21;94355.03;;;20.46;100.00
11676;BME280;5894;42.768;23.404;2022-09-27T11:53:10;94378.50;;;20.79;100.00
11676;BME280;5894;42.768;23.404;2022-09-27T11:55:51;94373.84;;;20.87;100.00
11676;BME280;5894;42.768;23.404;2022-09-27T11:58:24;94358.16;;;20.89;100.00
11676;BME280;5894;42.768;23.404;2022-09-27T12:01:11;94372.66;;;20.95;100.00
11676;BME280;5894;42.768;23.404;2022-09-27T12:04:05;94365.63;;;21.08;100.00
11676;BME280;5894;42.768;23.404;2022-09-27T12:06:46;94352.56;;;21.17;100.00
11676;BME280;5894;42.768;23.404;2022-09-27T12:09:19;94355.19;;;21.24;100.00
11676;BME280;5894;42.768;23.404;2022-09-27T12:11:51;94339.75;;;21.36;100.00
11676;BME280;5894;42.768;23.404;2022-09-27T12:14:24;94331.66;;;21.39;100.00
11676;BME280;5894;42.768;23.404;2022-09-27T12:16:57;94339.63;;;21.46;100.00
11676;BME280;5894;42.768;23.404;2022-09-27T12:19:27;94327.69;;;21.51;100.00
11676;BME280;5894;42.768;23.404;2022-09-27T12:22:21;94339.06;;;21.62;100.00
11676;BME280;5894;42.768;23.404;2022-09-27T12:24:52;94321.78;;;21.67;100.00
11676;BME280;5894;42.768;23.404;2022-09-27T12:27:38;94311.69;;;21.78;100.00
11676;BME280;5894;42.768;23.404;2022-09-27T12:30:15;94309.31;;;21.83;100.00
11676;BME280;5894;42.768;23.404;2022-09-27T12:32:51;94300.34;;;21.93;100.00
11676;BME280;5894;42.768;23.404;2022-09-27T12:35:26;94306.06;;;21.99;100.00
11676;BME280;5894;42.768;23.404;2022-09-27T12:37:59;94287.16;;;22.06;100.00
11676;BME280;5894;42.768;23.404;2022-09-27T12:40:32;94287.88;;;22.10;100.00
11676;BME280;5894;42.768;23.404;2022-09-27T12:43:06;94278.59;;;22.15;100.00
11676;BME280;5894;42.768;23.404;2022-09-27T12:46:03;94265.06;;;22.22;100.00
11676;BME280;5894;42.768;23.404;2022-09-27T12:48:42;94222.38;;;22.04;100.00
11676;BME280;5894;42.768;23.404;2022-09-27T12:51:12;94248.91;;;22.25;100.00
11676;BME280;5894;42.768;23.404;2022-09-27T12:53:54;94238.53;;;22.27;100.00
11676;BME280;5894;42.768;23.404;2022-09-27T12:56:34;94244.94;;;22.33;100.00
11676;BME280;5894;42.768;23.404;2022-09-27T12:59:26;94240.75;;;22.32;100.00
11676;BME280;5894;42.768;23.404;2022-09-27T13:02:20;94262.97;;;22.33;100.00
11676;BME280;5894;42.768;23.404;2022-09-27T13:05:21;94284.78;;;22.39;100.00
11676;BME280;5894;42.768;23.404;2022-09-27T13:08:08;94273.69;;;22.37;100.00
11676;BME280;5894;42.768;23.404;2022-09-27T13:10:52;94274.31;;;22.44;100.00
11676;BME280;5894;42.768;23.404;2022-09-27T13:13:32;94268.53;;;22.46;100.00
11676;BME280;5894;42.768;23.404;2022-09-27T13:16:01;94274.03;;;22.39;100.00
11676;BME280;5894;42.768;23.404;2022-09-27T13:18:55;94288.34;;;22.32;100.00
11676;BME280;5894;42.768;23.404;2022-09-27T13:21:55;94315.03;;;22.16;100.00
11676;BME280;5894;42.768;23.404;2022-09-27T13:24:45;94321.81;;;21.93;100.00
11676;BME280;5894;42.768;23.404;2022-09-27T13:27:38;94318.44;;;21.59;100.00
11676;BME280;5894;42.768;23.404;2022-09-27T13:33:39;94262.53;;;21.20;100.00
11676;BME280;5894;42.768;23.404;2022-09-27T13:36:29;94273.78;;;21.04;100.00
11676;BME280;5894;42.768;23.404;2022-09-27T13:39:18;94271.53;;;20.99;100.00
11676;BME280;5894;42.768;23.404;2022-09-27T13:42:17;94283.41;;;20.98;100.00
11676;BME280;5894;42.768;23.404;2022-09-27T13:45:00;94282.31;;;20.96;100.00
11676;BME280;5894;42.768;23.404;2022-09-27T13:47:32;94282.06;;;20.79;100.00
11676;BME280;5894;42.768;23.404;2022-09-27T13:50:19;94292.38;;;20.81;100.00
11676;BME280;5894;42.768;23.404;2022-09-27T13:52:59;94285.59;;;20.69;100.00